Time;durP1;ratioP1;P1;durP2;ratioP2;P2;SDS_P1;SDS_P2;PMS_P1;PMS_P2;Temp;Humidity;BMP_temperature;BMP_pressure;BME280_temperature;BME280_humidity;BME280_pressure;Samples;Min_cycle;Max_cycle;Signal;HPM_P1;HPM_P2
2022/01/01 00:02:13;;;;;;;112.78;46.17;;;;;;;10.54;94.32;102436.78;4974497;28;96862;-42
2022/01/01 00:04:40;;;;;;;94.10;39.13;;;;;;;10.56;94.35;102439.44;4974874;28;101379;-42
2022/01/01 00:07:05;;;;;;;64.35;29.63;;;;;;;10.45;94.58;102417.25;4973324;28;100178;-42
2022/01/01 00:09:30;;;;;;;88.70;28.63;;;;;;;10.51;94.87;102419.72;4975163;28;96585;-42
2022/01/01 00:11:56;;;;;;;57.17;25.17;;;;;;;10.49;94.55;102417.09;4974429;28;117665;-42
2022/01/01 00:14:21;;;;;;;63.30;26.38;;;;;;;10.54;94.57;102423.22;4972991;28;122069;-42
2022/01/01 00:16:46;;;;;;;62.45;27.95;;;;;;;10.48;94.69;102406.31;4973603;28;101093;-42
2022/01/01 00:19:12;;;;;;;59.40;24.52;;;;;;;10.47;94.94;102410.84;4974605;28;108796;-42
2022/01/01 00:21:37;;;;;;;60.83;24.42;;;;;;;10.47;94.71;102402.72;4975264;28;96879;-42
2022/01/01 00:24:02;;;;;;;62.85;24.85;;;;;;;10.53;94.67;102416.03;4974858;28;97440;-42
2022/01/01 00:26:28;;;;;;;59.65;25.42;;;;;;;10.59;94.85;102420.34;4975217;28;97393;-42
2022/01/01 00:28:53;;;;;;;61.65;21.95;;;;;;;10.51;94.78;102401.69;4973688;28;96650;-42
2022/01/01 00:31:18;;;;;;;61.95;22.67;;;;;;;10.59;95.00;102410.41;4975102;28;96700;-42
2022/01/01 00:33:44;;;;;;;47.40;20.35;;;;;;;10.53;94.47;102407.03;4973857;28;109774;-42
2022/01/01 00:36:09;;;;;;;48.95;21.92;;;;;;;10.65;94.63;102424.66;4974313;28;99523;-42
2022/01/01 00:38:35;;;;;;;38.53;15.40;;;;;;;10.64;94.91;102423.78;4975104;28;96574;-42
2022/01/01 00:41:00;;;;;;;38.65;15.38;;;;;;;10.68;94.93;102419.13;4975064;28;96779;-42
2022/01/01 00:43:25;;;;;;;42.50;16.10;;;;;;;10.60;94.83;102404.03;4974638;28;97929;-42
2022/01/01 00:45:51;;;;;;;46.15;13.07;;;;;;;10.63;94.80;102405.75;4974269;28;99541;-42
2022/01/01 00:48:16;;;;;;;39.83;14.98;;;;;;;10.63;94.85;102405.75;4974455;28;96829;-42
2022/01/01 00:50:41;;;;;;;35.08;12.65;;;;;;;10.69;95.22;102420.91;4974993;28;96696;-42
2022/01/01 00:53:07;;;;;;;44.67;12.38;;;;;;;10.71;94.89;102419.03;4974046;28;115423;-42
2022/01/01 00:55:33;;;;;;;28.42;13.98;;;;;;;10.66;94.74;102421.03;4972846;28;99309;-42
2022/01/01 00:57:59;;;;;;;37.17;13.27;;;;;;;10.65;94.78;102413.81;4974318;28;96524;-42
2022/01/01 01:00:24;;;;;;;22.58;9.98;;;;;;;10.49;95.22;102392.72;4975909;28;96845;-42
2022/01/01 01:02:49;;;;;;;31.05;11.18;;;;;;;10.66;95.25;102426.44;4978135;28;103930;-42
2022/01/01 01:05:14;;;;;;;25.45;9.70;;;;;;;10.76;95.18;102452.25;4977388;28;109561;-42
2022/01/01 01:07:40;;;;;;;34.40;10.80;;;;;;;10.76;95.17;102445.00;4977148;28;111941;-42
2022/01/01 01:10:05;;;;;;;126.05;30.05;;;;;;;10.80;95.10;102445.78;4978052;28;96861;-41
2022/01/01 01:12:44;;;;;;;111.07;26.10;;;;;;;10.80;95.42;102454.81;4976341;28;101175;-42
2022/01/01 01:15:17;;;;;;;68.55;21.95;;;;;;;10.82;95.00;102449.31;4976819;28;100688;-42
2022/01/01 01:17:47;;;;;;;43.03;12.65;;;;;;;10.74;95.17;102435.16;4978193;28;96663;-42
2022/01/01 01:20:13;;;;;;;27.75;9.98;;;;;;;10.81;95.44;102444.84;4977720;28;96826;-42
2022/01/01 01:22:38;;;;;;;24.65;9.52;;;;;;;10.78;95.43;102421.44;4975797;28;101060;-42
2022/01/01 01:25:04;;;;;;;28.95;9.55;;;;;;;10.93;95.21;102443.50;4976384;28;97814;-42
2022/01/01 01:27:30;;;;;;;23.40;9.15;;;;;;;10.85;95.13;102416.69;4977926;28;96497;-41
2022/01/01 01:29:58;;;;;;;21.83;8.80;;;;;;;10.96;95.16;102433.41;4976365;28;96850;-42
2022/01/01 01:32:23;;;;;;;15.23;7.88;;;;;;;10.98;95.03;102433.38;4975766;28;101167;-42
2022/01/01 01:34:49;;;;;;;18.15;7.30;;;;;;;11.01;95.23;102444.09;4977453;28;97884;-42
2022/01/01 01:37:14;;;;;;;16.45;6.90;;;;;;;11.08;95.10;102451.03;4977101;28;106883;-42
2022/01/01 01:39:39;;;;;;;16.85;6.90;;;;;;;10.97;94.79;102426.19;4977063;28;115410;-42
2022/01/01 01:42:05;;;;;;;16.42;7.20;;;;;;;11.09;94.97;102452.84;4977049;28;119454;-42
2022/01/01 01:44:34;;;;;;;16.20;7.00;;;;;;;11.12;95.08;102440.97;4977136;28;99100;-42
2022/01/01 01:47:02;;;;;;;18.40;7.43;;;;;;;11.05;95.25;102440.31;4975222;28;96713;-42
2022/01/01 01:49:29;;;;;;;21.00;7.57;;;;;;;11.03;94.79;102429.53;4976196;28;96850;-41
2022/01/01 01:51:54;;;;;;;22.67;7.32;;;;;;;11.16;94.87;102445.34;4975643;28;101263;-41
2022/01/01 01:54:20;;;;;;;17.98;6.82;;;;;;;11.08;94.83;102428.47;4976896;28;99174;-42
2022/01/01 01:56:47;;;;;;;20.55;8.20;;;;;;;11.09;94.74;102427.53;4977030;28;96643;-42
2022/01/01 01:59:14;;;;;;;20.38;7.07;;;;;;;11.19;94.90;102450.66;4975970;28;96895;-41
2022/01/01 02:01:39;;;;;;;16.38;7.50;;;;;;;10.97;94.69;102410.78;4974987;28;101102;-42
2022/01/01 02:04:04;;;;;;;18.48;8.18;;;;;;;11.03;94.95;102412.38;4977447;28;97848;-42
2022/01/01 02:06:30;;;;;;;18.75;8.65;;;;;;;11.07;94.70;102421.28;4976194;28;110116;-41
2022/01/01 02:08:55;;;;;;;20.35;8.73;;;;;;;11.08;94.77;102412.19;4977409;28;96925;-42
2022/01/01 02:11:23;;;;;;;27.85;11.25;;;;;;;11.15;94.54;102428.16;4976100;28;97921;-42
2022/01/01 02:18:52;;;;;;;25.35;9.90;;;;;;;11.11;94.71;102429.25;4975110;28;96815;-42
2022/01/01 02:21:20;;;;;;;30.55;10.48;;;;;;;10.94;94.71;102388.31;4975133;28;101102;-42
2022/01/01 02:23:46;;;;;;;24.15;8.23;;;;;;;11.07;94.61;102403.19;4975156;28;98883;-42
2022/01/01 02:26:15;;;;;;;18.98;8.68;;;;;;;11.07;94.80;102403.19;4975563;28;96597;-42
2022/01/01 02:28:42;;;;;;;19.23;7.25;;;;;;;11.02;94.92;102403.38;4977031;28;96756;-42
2022/01/01 02:31:08;;;;;;;20.98;8.73;;;;;;;11.09;94.88;102419.41;4975108;28;100570;-41
2022/01/01 02:33:34;;;;;;;17.58;7.25;;;;;;;11.01;95.40;102409.75;4976614;28;97768;-42
2022/01/01 02:35:59;;;;;;;24.90;7.75;;;;;;;10.93;95.23;102389.28;4976359;28;96550;-42
2022/01/01 02:38:35;;;;;;;23.13;8.10;;;;;;;11.07;95.04;102415.88;4976746;28;96819;-41
2022/01/01 02:41:00;;;;;;;25.33;8.82;;;;;;;10.99;94.97;102406.19;4975023;28;100842;-42
2022/01/01 02:43:25;;;;;;;17.08;8.70;;;;;;;11.11;94.76;102434.69;4976141;28;98459;-42
2022/01/01 02:45:51;;;;;;;22.15;7.47;;;;;;;11.11;94.91;102434.69;4976410;28;96736;-41
2022/01/01 02:48:17;;;;;;;17.27;7.53;;;;;;;11.09;94.83;102427.53;4976873;28;96775;-41
2022/01/01 02:50:42;;;;;;;17.48;7.32;;;;;;;11.00;94.95;102424.22;4976242;28;97496;-42
2022/01/01 02:53:15;;;;;;;17.58;6.28;;;;;;;11.10;94.55;102432.88;4974946;28;113634;-42
2022/01/01 02:55:43;;;;;;;22.85;7.28;;;;;;;11.13;94.77;102431.88;4974862;28;96890;-42
2022/01/01 02:58:13;;;;;;;13.57;6.63;;;;;;;11.13;94.71;102443.66;4974938;28;96879;-42
2022/01/01 03:00:39;;;;;;;13.70;6.95;;;;;;;11.14;94.88;102441.81;4973667;28;100864;-41
2022/01/01 03:03:05;;;;;;;19.73;6.97;;;;;;;11.14;94.87;102447.22;4976071;28;97871;-42
2022/01/01 03:05:31;;;;;;;22.35;7.80;;;;;;;11.01;94.84;102414.25;4976460;28;96633;-42
2022/01/01 03:07:57;;;;;;;16.88;6.95;;;;;;;11.06;95.05;102423.13;4976299;28;96763;-42
2022/01/01 03:10:23;;;;;;;23.92;8.15;;;;;;;11.13;94.89;102426.47;4974074;28;100754;-42
2022/01/01 03:12:48;;;;;;;18.50;6.93;;;;;;;11.05;94.92;102418.63;4974515;28;99213;-42
2022/01/01 03:15:22;;;;;;;23.65;8.48;;;;;;;11.14;94.92;102431.84;4975468;28;116909;-42
2022/01/01 03:17:48;;;;;;;16.50;6.40;;;;;;;11.12;94.72;102416.56;4975903;28;100507;-42
2022/01/01 03:20:13;;;;;;;22.17;6.93;;;;;;;11.04;94.76;102404.19;4974455;28;99195;-42
2022/01/01 03:22:38;;;;;;;21.20;7.45;;;;;;;11.03;94.61;102402.41;4974170;28;117227;-42
2022/01/01 03:25:04;;;;;;;20.23;6.85;;;;;;;11.15;94.73;102408.31;4974727;28;109777;-42
2022/01/01 03:27:29;;;;;;;22.50;6.85;;;;;;;11.14;94.68;102403.84;4976132;28;96776;-42
2022/01/01 03:29:54;;;;;;;21.95;7.50;;;;;;;11.12;94.77;102417.44;4975543;28;101533;-42
2022/01/01 03:32:20;;;;;;;21.52;6.32;;;;;;;11.07;94.62;102407.75;4974568;28;126600;-42
2022/01/01 03:34:45;;;;;;;18.42;7.55;;;;;;;11.07;94.73;102405.91;4975620;28;96626;-42
2022/01/01 03:37:11;;;;;;;22.15;6.65;;;;;;;11.04;94.58;102395.19;4975190;28;112274;-42
2022/01/01 03:39:36;;;;;;;19.48;6.88;;;;;;;11.13;94.42;102419.25;4975285;28;99577;-41
2022/01/01 03:42:02;;;;;;;18.67;7.05;;;;;;;10.94;94.40;102383.81;4975236;28;118427;-42
2022/01/01 03:44:27;;;;;;;20.60;6.90;;;;;;;11.01;94.66;102395.28;4974283;28;96596;-42
2022/01/01 03:47:00;;;;;;;23.20;8.60;;;;;;;10.94;94.57;102388.31;4974184;28;115214;-42
2022/01/01 03:49:25;;;;;;;22.20;7.88;;;;;;;10.96;94.34;102406.28;4973409;28;101100;-42
2022/01/01 03:51:51;;;;;;;15.93;6.80;;;;;;;10.93;94.75;102392.88;4974700;28;117520;-42
2022/01/01 03:54:16;;;;;;;15.10;5.72;;;;;;;10.96;94.63;102411.72;4975354;28;96636;-42
2022/01/01 03:56:42;;;;;;;18.90;6.32;;;;;;;10.86;94.71;102393.16;4975510;28;96754;-42
2022/01/01 03:59:07;;;;;;;9.88;5.40;;;;;;;10.82;94.83;102389.66;4975193;28;98151;-42
2022/01/01 04:01:33;;;;;;;16.13;6.28;;;;;;;10.78;94.79;102388.03;4974212;28;125778;-41
2022/01/01 04:03:58;;;;;;;24.40;6.75;;;;;;;10.76;94.72;102389.91;4975267;28;96540;-41
2022/01/01 04:06:23;;;;;;;12.77;4.72;;;;;;;10.83;94.91;102407.72;4975002;28;113945;-42
2022/01/01 04:08:49;;;;;;;8.35;4.38;;;;;;;10.72;94.91;102393.69;4974926;28;97879;-42
2022/01/01 04:11:14;;;;;;;8.77;5.03;;;;;;;10.85;94.90;102419.41;4974560;28;112471;-42
2022/01/01 04:13:39;;;;;;;15.23;5.72;;;;;;;10.80;94.90;102421.41;4974934;28;96581;-42
2022/01/01 04:16:06;;;;;;;15.23;5.78;;;;;;;10.81;94.58;102434.00;4974772;28;108650;-42
2022/01/01 04:18:38;;;;;;;13.02;4.85;;;;;;;10.73;94.67;102411.72;4974835;28;97519;-42
2022/01/01 04:21:08;;;;;;;13.45;5.80;;;;;;;10.81;94.81;102415.03;4973462;28;101304;-42
2022/01/01 04:23:34;;;;;;;10.60;4.38;;;;;;;10.72;94.87;102399.97;4973838;28;96589;-42
2022/01/01 04:25:59;;;;;;;11.43;4.80;;;;;;;10.83;95.08;102413.16;4975405;28;96809;-42
2022/01/01 04:28:25;;;;;;;14.32;5.28;;;;;;;10.82;94.88;102403.22;4974515;28;107959;-42
2022/01/01 04:30:50;;;;;;;13.48;4.53;;;;;;;10.81;95.04;102396.94;4974422;28;120447;-41
2022/01/01 04:33:15;;;;;;;16.55;5.60;;;;;;;10.79;95.01;102397.94;4974710;28;102523;-42
2022/01/01 04:35:41;;;;;;;14.95;4.70;;;;;;;10.76;94.71;102400.75;4974971;28;96830;-42
2022/01/01 04:38:15;;;;;;;8.48;4.20;;;;;;;10.91;94.62;102427.28;4972865;28;101244;-42
2022/01/01 04:40:40;;;;;;;10.70;4.32;;;;;;;10.89;94.51;102423.75;4974694;28;99371;-41
2022/01/01 04:43:05;;;;;;;13.77;5.15;;;;;;;10.89;94.45;102431.00;4972939;28;117837;-42
2022/01/01 04:45:31;;;;;;;14.57;4.88;;;;;;;10.90;94.41;102433.66;4974228;28;117948;-42
2022/01/01 04:47:56;;;;;;;14.07;4.68;;;;;;;10.93;94.33;102433.53;4973592;28;126559;-42
2022/01/01 04:50:21;;;;;;;10.07;3.78;;;;;;;10.84;94.33;102417.59;4973507;28;126949;-42
2022/01/01 04:52:47;;;;;;;7.25;3.65;;;;;;;10.89;94.25;102418.31;4975045;28;96490;-42
2022/01/01 04:55:12;;;;;;;10.90;4.18;;;;;;;10.89;94.18;102436.41;4975106;28;96859;-42
2022/01/01 04:57:37;;;;;;;12.25;5.18;;;;;;;10.89;94.24;102447.25;4974070;28;99313;-42
2022/01/01 05:00:03;;;;;;;7.07;3.88;;;;;;;10.83;94.11;102434.81;4973529;28;99169;-41
2022/01/01 05:02:28;;;;;;;9.10;3.97;;;;;;;10.71;93.96;102409.06;4973124;28;96602;-42
2022/01/01 05:04:54;;;;;;;9.93;3.42;;;;;;;10.86;94.27;102441.97;4972257;28;113538;-42
2022/01/01 05:07:20;;;;;;;13.25;3.97;;;;;;;10.81;94.20;102432.16;4974465;28;97963;-42
2022/01/01 05:09:45;;;;;;;11.52;3.13;;;;;;;10.71;94.36;102398.22;4972930;28;100768;-42
2022/01/01 05:12:11;;;;;;;9.90;3.40;;;;;;;10.82;94.34;102414.97;4973649;28;116060;-41
2022/01/01 05:14:36;;;;;;;6.10;3.03;;;;;;;10.83;94.30;102419.44;4974457;28;96896;-42
2022/01/01 05:17:02;;;;;;;11.10;3.85;;;;;;;10.86;94.34;102421.16;4972996;28;128567;-42
2022/01/01 05:19:27;;;;;;;9.57;3.10;;;;;;;10.86;94.18;102413.03;4974420;28;99037;-42
2022/01/01 05:21:55;;;;;;;9.05;3.63;;;;;;;10.85;94.13;102405.84;4973953;28;105450;-42
2022/01/01 05:24:21;;;;;;;10.10;4.43;;;;;;;10.91;94.26;102413.72;4974393;28;97056;-42
2022/01/01 05:26:47;;;;;;;8.65;3.63;;;;;;;10.88;94.11;102413.84;4973665;28;99408;-42
2022/01/01 05:29:12;;;;;;;11.23;3.55;;;;;;;10.89;93.87;102399.34;4974073;28;103614;-42
2022/01/01 05:31:38;;;;;;;7.82;3.42;;;;;;;10.96;93.76;102414.44;4972917;28;98227;-42
2022/01/01 05:34:03;;;;;;;13.45;2.80;;;;;;;10.96;93.65;102414.44;4972427;28;111736;-42
2022/01/01 05:36:29;;;;;;;9.63;3.10;;;;;;;10.89;93.57;102395.75;4974149;28;97870;-42
2022/01/01 05:38:55;;;;;;;8.93;3.10;;;;;;;11.00;93.53;102410.66;4972594;28;100879;-42
2022/01/01 05:41:21;;;;;;;11.32;3.45;;;;;;;10.91;93.32;102383.03;4972912;28;96614;-42
2022/01/01 05:43:46;;;;;;;13.60;3.53;;;;;;;10.92;93.33;102380.28;4973257;28;96898;-42
2022/01/01 05:46:11;;;;;;;6.97;3.13;;;;;;;11.04;93.58;102390.63;4974563;28;116034;-42
2022/01/01 05:48:38;;;;;;;7.28;3.50;;;;;;;10.93;93.41;102373.00;4976298;28;116795;-42
2022/01/01 05:51:04;;;;;;;15.98;4.40;;;;;;;11.02;93.29;102387.09;4976871;28;96626;-42
2022/01/01 05:53:29;;;;;;;8.20;3.00;;;;;;;11.05;93.34;102396.94;4977596;28;96777;-42
2022/01/01 05:56:00;;;;;;;7.45;2.85;;;;;;;10.96;93.40;102381.91;4976874;28;112866;-42
2022/01/01 05:58:26;;;;;;;13.48;3.58;;;;;;;11.08;93.57;102407.66;4977086;28;97795;-41
2022/01/01 06:00:51;;;;;;;8.02;3.60;;;;;;;10.98;93.25;102396.28;4976992;28;96737;-42
2022/01/01 06:03:17;;;;;;;9.90;3.17;;;;;;;10.99;93.18;102399.91;4976377;28;112060;-41
2022/01/01 06:05:43;;;;;;;13.00;3.63;;;;;;;11.02;93.27;102403.38;4977076;28;97934;-41
2022/01/01 06:08:10;;;;;;;7.13;3.00;;;;;;;10.96;93.28;102392.75;4976765;28;96739;-42
2022/01/01 06:10:35;;;;;;;9.15;3.33;;;;;;;11.00;93.18;102405.25;4975621;28;96630;-41
2022/01/01 06:13:07;;;;;;;6.03;3.00;;;;;;;11.00;93.24;102398.94;4977472;28;96876;-42
2022/01/01 06:15:32;;;;;;;6.75;2.67;;;;;;;10.93;93.26;102392.00;4976460;28;97937;-42
2022/01/01 06:17:58;;;;;;;7.00;3.10;;;;;;;11.10;93.42;102432.00;4975006;28;100568;-42
2022/01/01 06:20:23;;;;;;;7.30;2.67;;;;;;;10.88;93.28;102392.16;4976338;28;117511;-41
2022/01/01 06:22:48;;;;;;;5.22;2.83;;;;;;;11.13;93.01;102432.78;4976915;28;96818;-42
2022/01/01 06:25:14;;;;;;;6.93;2.67;;;;;;;11.14;93.09;102422.81;4976463;28;99714;-42
2022/01/01 06:27:39;;;;;;;9.73;2.75;;;;;;;11.13;93.09;102421.03;4976736;28;97344;-42
2022/01/01 06:30:05;;;;;;;7.07;2.47;;;;;;;11.09;93.00;102414.88;4975833;28;115533;-42
2022/01/01 06:32:31;;;;;;;20.13;4.10;;;;;;;11.10;93.15;102421.16;4977122;28;96777;-42
2022/01/01 06:34:57;;;;;;;5.50;2.85;;;;;;;11.10;93.08;102423.88;4976524;28;98075;-41
2022/01/01 06:37:22;;;;;;;6.68;3.22;;;;;;;11.03;92.92;102421.38;4975216;28;100586;-41
2022/01/01 06:39:49;;;;;;;7.47;2.92;;;;;;;11.07;93.15;102426.72;4975352;28;118345;-41
2022/01/01 06:42:14;;;;;;;7.18;2.70;;;;;;;11.01;92.89;102416.97;4976649;28;96795;-41
2022/01/01 06:44:42;;;;;;;8.05;2.90;;;;;;;11.11;92.79;102433.78;4974927;28;99406;-42
2022/01/01 06:47:07;;;;;;;10.45;3.42;;;;;;;11.08;93.09;102425.75;4975887;28;97823;-42
2022/01/01 06:49:32;;;;;;;9.50;3.85;;;;;;;11.06;92.89;102425.84;4975244;28;96673;-42
2022/01/01 06:51:58;;;;;;;6.75;3.03;;;;;;;11.09;93.14;102441.09;4976407;28;96851;-42
2022/01/01 06:54:30;;;;;;;9.25;3.25;;;;;;;11.11;93.01;102433.78;4973736;28;127500;-42
2022/01/01 06:56:55;;;;;;;5.15;2.92;;;;;;;11.08;92.90;102425.75;4975458;28;97320;-42
2022/01/01 06:59:20;;;;;;;6.30;2.80;;;;;;;11.08;92.69;102426.63;4976922;28;96454;-42
2022/01/01 07:01:46;;;;;;;13.88;3.50;;;;;;;11.05;92.82;102430.34;4975886;28;96829;-41
2022/01/01 07:04:11;;;;;;;9.63;3.38;;;;;;;11.09;92.81;102435.69;4974516;28;126502;-42
2022/01/01 07:06:37;;;;;;;9.48;2.67;;;;;;;11.07;92.67;102426.72;4973637;28;126166;-42
2022/01/01 07:09:03;;;;;;;6.13;3.05;;;;;;;11.05;92.64;102424.94;4974916;28;96612;-42
2022/01/01 07:11:29;;;;;;;8.43;3.72;;;;;;;11.04;92.83;102422.28;4974747;28;97051;-41
2022/01/01 07:13:54;;;;;;;6.20;2.70;;;;;;;11.02;92.70;102425.06;4976088;28;97908;-42
2022/01/01 07:16:22;;;;;;;5.93;3.15;;;;;;;10.94;92.45;102407.31;4975477;28;99540;-41
2022/01/01 07:18:48;;;;;;;11.00;3.25;;;;;;;10.97;92.43;102416.22;4974856;28;96607;-41
2022/01/01 07:21:13;;;;;;;6.88;3.15;;;;;;;11.04;92.83;102425.88;4976378;28;96853;-42
2022/01/01 07:23:39;;;;;;;11.80;3.95;;;;;;;11.03;92.70;102423.22;4975889;28;98287;-42
2022/01/01 07:26:04;;;;;;;7.55;3.25;;;;;;;11.05;92.69;102437.59;4975505;28;106408;-42
2022/01/01 07:28:29;;;;;;;7.95;2.88;;;;;;;11.04;92.93;102439.44;4975083;28;101318;-42
2022/01/01 07:30:55;;;;;;;8.32;3.30;;;;;;;11.05;92.85;102437.59;4975118;28;108361;-42
2022/01/01 07:33:20;;;;;;;18.20;3.70;;;;;;;10.94;92.72;102420.84;4975837;28;97946;-42
2022/01/01 07:35:48;;;;;;;7.80;3.15;;;;;;;11.03;92.80;102437.66;4975416;28;99245;-42
2022/01/01 07:38:14;;;;;;;10.50;3.35;;;;;;;11.04;92.67;102444.00;4975768;28;96517;-42
2022/01/01 07:40:39;;;;;;;7.15;3.75;;;;;;;10.93;92.67;102425.41;4975850;28;96780;-42
2022/01/01 07:43:12;;;;;;;5.43;2.45;;;;;;;10.98;92.39;102433.38;4975650;28;97972;-41
2022/01/01 07:45:38;;;;;;;8.55;2.60;;;;;;;11.03;92.43;102440.38;4974197;28;101440;-41
2022/01/01 07:48:08;;;;;;;7.80;3.72;;;;;;;11.03;92.60;102442.19;4957730;28;96598;-42
2022/01/01 07:50:34;;;;;;;14.00;3.47;;;;;;;11.02;92.53;102441.31;4974331;28;96860;-42
2022/01/01 07:53:08;;;;;;;14.27;2.88;;;;;;;10.86;92.39;102420.28;4974901;28;97737;-42
2022/01/01 07:55:33;;;;;;;8.02;2.75;;;;;;;10.97;92.39;102443.34;4975125;28;97902;-42
2022/01/01 07:57:58;;;;;;;8.15;3.03;;;;;;;11.02;92.55;102454.88;4975560;28;96697;-42
2022/01/01 08:00:24;;;;;;;10.38;2.78;;;;;;;11.03;92.61;102453.94;4975540;28;96911;-42
2022/01/01 08:02:49;;;;;;;5.68;2.20;;;;;;;10.91;92.47;102432.69;4975298;28;97445;-42
2022/01/01 08:05:16;;;;;;;4.00;1.95;;;;;;;10.93;92.41;102428.13;4972665;28;126994;-41
2022/01/01 08:07:42;;;;;;;6.80;3.08;;;;;;;11.04;92.45;102442.16;4973784;28;96711;-42
2022/01/01 08:10:09;;;;;;;11.25;3.35;;;;;;;11.03;92.51;102437.66;4974234;28;96868;-42
2022/01/01 08:12:35;;;;;;;8.45;2.88;;;;;;;11.00;92.59;102432.34;4973323;28;101141;-42
2022/01/01 08:15:01;;;;;;;6.68;2.88;;;;;;;10.94;92.32;102429.00;4973951;28;97366;-42
2022/01/01 08:17:26;;;;;;;7.82;3.38;;;;;;;11.04;92.31;102438.56;4973229;28;97913;-42
2022/01/01 08:19:52;;;;;;;6.65;2.95;;;;;;;10.93;92.31;102428.13;4975258;28;96921;-41
2022/01/01 08:22:17;;;;;;;7.00;2.28;;;;;;;10.91;91.97;102426.41;4974853;28;98728;-42
2022/01/01 08:24:43;;;;;;;11.52;3.13;;;;;;;10.98;92.30;102439.66;4974824;28;102711;-42
2022/01/01 08:27:08;;;;;;;7.82;2.92;;;;;;;10.99;92.28;102438.75;4975505;28;96751;-42
2022/01/01 08:29:34;;;;;;;6.65;3.38;;;;;;;10.98;92.16;102446.91;4975349;28;96808;-42
2022/01/01 08:31:59;;;;;;;6.70;3.38;;;;;;;10.94;92.50;102447.97;4974747;28;98335;-42
2022/01/01 08:34:25;;;;;;;13.30;3.75;;;;;;;10.93;92.52;102455.22;4974337;28;126382;-42
2022/01/01 08:36:51;;;;;;;6.95;2.90;;;;;;;10.89;92.28;102437.28;4973774;28;96838;-42
2022/01/01 08:39:17;;;;;;;8.05;3.80;;;;;;;10.92;92.41;102437.19;4975015;28;96808;-41
2022/01/01 08:41:44;;;;;;;8.27;3.20;;;;;;;10.74;92.17;102408.06;4974097;28;98005;-42
2022/01/01 08:44:09;;;;;;;7.88;3.33;;;;;;;10.81;92.28;102413.19;4973331;28;100558;-42
2022/01/01 08:46:35;;;;;;;6.43;3.30;;;;;;;10.90;92.38;102436.38;4974809;28;96744;-42
2022/01/01 08:49:02;;;;;;;7.25;3.78;;;;;;;10.79;92.18;102406.06;4973430;28;96866;-42
2022/01/01 08:51:28;;;;;;;11.93;3.88;;;;;;;10.78;92.60;102407.91;4974521;28;97924;-42
2022/01/01 08:53:53;;;;;;;17.08;3.88;;;;;;;10.76;92.36;102409.78;4974333;28;99131;-42
2022/01/01 08:56:19;;;;;;;7.28;3.40;;;;;;;10.74;92.43;102400.81;4974308;28;96670;-42
2022/01/01 08:58:45;;;;;;;11.02;3.88;;;;;;;10.74;92.40;102399.94;4975421;28;96844;-42
2022/01/01 09:01:19;;;;;;;11.80;4.38;;;;;;;10.84;92.45;102423.94;4972542;28;101178;-42
2022/01/01 09:03:44;;;;;;;6.65;3.42;;;;;;;10.70;92.45;102420.84;4974053;28;111492;-42
2022/01/01 09:06:11;;;;;;;10.05;4.18;;;;;;;10.71;92.41;102419.03;4974010;28;98935;-42
2022/01/01 09:08:42;;;;;;;15.35;4.70;;;;;;;10.70;92.52;102420.84;4973369;28;96663;-42
2022/01/01 09:11:09;;;;;;;7.77;3.67;;;;;;;10.81;92.58;102434.00;4972811;28;101155;-42
2022/01/01 09:13:35;;;;;;;9.68;4.35;;;;;;;10.74;92.47;102425.19;4974304;28;97358;-42
2022/01/01 09:16:01;;;;;;;15.35;6.25;;;;;;;10.75;92.66;102436.91;4974439;28;96606;-42
2022/01/01 09:18:26;;;;;;;23.30;7.30;;;;;;;10.72;92.88;102431.63;4973028;28;96894;-42
2022/01/01 09:20:52;;;;;;;15.80;7.07;;;;;;;10.61;93.19;102399.50;4975939;28;109970;-42
2022/01/01 09:23:19;;;;;;;15.80;6.00;;;;;;;10.73;92.98;102417.16;4977911;28;97939;-42
2022/01/01 09:25:45;;;;;;;18.02;7.00;;;;;;;10.74;92.86;102414.34;4977749;28;96563;-42
2022/01/01 09:28:11;;;;;;;20.88;7.13;;;;;;;10.66;92.91;102393.94;4977940;28;96838;-42
2022/01/01 09:30:36;;;;;;;17.45;6.82;;;;;;;10.68;92.92;102376.66;4975604;28;100980;-42
2022/01/01 09:33:02;;;;;;;9.23;4.50;;;;;;;10.66;92.81;102374.97;4977337;28;97830;-41
2022/01/01 09:35:28;;;;;;;10.20;4.47;;;;;;;10.67;93.06;102369.47;4976187;28;96613;-42
2022/01/01 09:37:53;;;;;;;15.63;7.85;;;;;;;10.72;93.03;102381.00;4977706;28;96802;-42
2022/01/01 09:40:18;;;;;;;21.08;8.05;;;;;;;10.69;93.10;102377.53;4976746;28;116335;-42
2022/01/01 09:42:46;;;;;;;14.30;5.70;;;;;;;10.56;93.64;102361.75;4977341;28;97427;-42
2022/01/01 09:45:11;;;;;;;17.23;8.18;;;;;;;10.63;93.56;102382.25;4976222;28;96688;-42
2022/01/01 09:47:37;;;;;;;15.55;7.03;;;;;;;10.72;93.25;102388.25;4976302;28;96954;-42
2022/01/01 09:50:07;;;;;;;16.67;7.32;;;;;;;10.63;93.37;102366.00;4977555;28;97355;-42
2022/01/01 09:52:33;;;;;;;16.02;6.22;;;;;;;10.75;93.59;102377.28;4975476;28;101944;-42
2022/01/01 09:54:58;;;;;;;22.70;8.20;;;;;;;10.63;93.96;102357.00;4975488;28;96562;-42
2022/01/01 09:57:23;;;;;;;34.55;10.85;;;;;;;10.50;93.69;102325.88;4977081;28;96899;-42
2022/01/01 09:59:49;;;;;;;24.45;7.47;;;;;;;10.61;94.16;102354.31;4975915;28;125143;-41
2022/01/01 10:02:14;;;;;;;19.02;7.82;;;;;;;10.74;93.73;102380.97;4977095;28;97334;-42
2022/01/01 10:04:48;;;;;;;20.98;8.05;;;;;;;10.78;93.60;102371.78;4976478;28;109413;-42
2022/01/01 10:07:14;;;;;;;25.00;8.88;;;;;;;10.71;94.13;102365.69;4977374;28;96741;-42
2022/01/01 10:09:41;;;;;;;18.80;7.53;;;;;;;10.87;93.85;102375.94;4974347;28;100972;-42
2022/01/01 10:12:09;;;;;;;22.83;9.45;;;;;;;10.92;93.45;102382.97;4977175;28;98363;-42
2022/01/01 10:14:40;;;;;;;27.98;8.85;;;;;;;10.94;93.34;102372.97;4975843;28;96583;-42
2022/01/01 10:17:23;;;;;;;22.13;7.03;;;;;;;10.83;93.38;102342.66;4975665;28;96854;-42
2022/01/01 10:19:52;;;;;;;19.80;7.25;;;;;;;10.94;93.38;102351.28;4974946;28;102149;-42
2022/01/01 10:22:23;;;;;;;19.65;7.53;;;;;;;11.00;93.24;102348.31;4975333;28;100831;-42
2022/01/01 10:27:53;;;;;;;17.85;7.03;;;;;;;11.25;92.74;102369.94;4977008;28;96483;-42
2022/01/01 10:30:31;;;;;;;17.92;6.78;;;;;;;11.27;92.81;102373.47;4976750;28;97982;-42
2022/01/01 10:33:08;;;;;;;15.93;6.18;;;;;;;11.33;92.57;102377.75;4975098;28;101024;-42
2022/01/01 10:35:39;;;;;;;25.35;9.95;;;;;;;11.31;92.54;102365.19;4976745;28;96684;-42
2022/01/01 10:38:12;;;;;;;16.95;6.78;;;;;;;11.40;92.32;102376.56;4975802;28;96706;-42
2022/01/01 10:40:39;;;;;;;21.02;8.88;;;;;;;11.47;92.09;102374.50;4976378;28;98049;-41
2022/01/01 10:43:04;;;;;;;19.88;8.23;;;;;;;11.46;91.96;102356.41;4974855;28;101011;-42
2022/01/01 10:45:32;;;;;;;21.42;7.57;;;;;;;11.50;91.86;102344.50;4976002;28;96638;-42
2022/01/01 10:48:05;;;;;;;22.20;9.15;;;;;;;11.63;91.61;102339.44;4974984;28;96935;-42
2022/01/01 10:50:35;;;;;;;23.10;9.07;;;;;;;11.66;91.35;102328.47;4974924;28;101207;-42
2022/01/01 10:53:10;;;;;;;32.00;8.85;;;;;;;11.79;91.15;102345.97;4975673;28;106746;-42
2022/01/01 10:55:40;;;;;;;18.23;7.95;;;;;;;11.80;90.96;102349.59;4975063;28;96786;-42
2022/01/01 10:58:05;;;;;;;23.40;9.38;;;;;;;11.86;91.12;102355.63;4975061;28;96897;-42
2022/01/01 11:00:39;;;;;;;21.45;9.07;;;;;;;11.87;90.95;102348.44;4974755;28;123264;-42
2022/01/01 11:03:13;;;;;;;17.25;8.27;;;;;;;11.86;90.58;102347.50;4976415;28;97913;-42
2022/01/01 11:05:38;;;;;;;21.73;7.30;;;;;;;11.98;90.57;102342.53;4976328;28;96592;-42
2022/01/01 11:08:06;;;;;;;30.05;10.25;;;;;;;11.99;90.49;102334.31;4976501;28;96773;-42
2022/01/01 11:10:32;;;;;;;25.90;9.27;;;;;;;12.22;90.47;102365.00;4974012;28;100987;-42
2022/01/01 11:12:59;;;;;;;18.88;7.85;;;;;;;12.16;89.75;102320.00;4974358;28;101362;-42
2022/01/01 11:15:26;;;;;;;18.55;7.88;;;;;;;12.34;89.66;102331.84;4974841;28;96755;-42
2022/01/01 11:17:52;;;;;;;21.23;7.57;;;;;;;12.35;89.52;102351.75;4974469;28;97042;-42
2022/01/01 11:20:20;;;;;;;16.30;7.13;;;;;;;12.47;89.27;102357.53;4975959;28;97931;-41